Time;durP1;ratioP1;P1;durP2;ratioP2;P2;SDS_P1;SDS_P2;PMS_P1;PMS_P2;Temp;Humidity;BMP_temperature;BMP_pressure;BME280_temperature;BME280_humidity;BME280_pressure;Samples;Min_cycle;Max_cycle;Signal;HPM_P1;HPM_P2
2022/03/14 00:01:09;;;;;;;11.55;4.95;;;5.60;99.90;;;;;;5064219;28;20024;-75
2022/03/14 00:03:53;;;;;;;10.35;4.38;;;5.60;99.90;;;;;;5047369;28;20024;-75
2022/03/14 00:06:20;;;;;;;13.90;5.18;;;5.60;99.90;;;;;;5064624;28;20335;-74
2022/03/14 00:08:46;;;;;;;10.23;5.15;;;5.60;99.90;;;;;;5047478;28;20031;-75
2022/03/14 00:11:14;;;;;;;8.27;5.35;;;5.60;99.90;;;;;;5063678;28;20040;-75
2022/03/14 00:13:43;;;;;;;12.07;5.40;;;5.60;99.90;;;;;;5013367;28;20025;-75
2022/03/14 00:16:10;;;;;;;11.43;4.95;;;5.60;99.90;;;;;;5045087;28;20308;-75
2022/03/14 00:18:36;;;;;;;8.35;4.50;;;5.60;99.90;;;;;;5044033;28;20021;-76
2022/03/14 00:21:02;;;;;;;8.48;4.38;;;5.50;99.90;;;;;;5058251;28;20079;-76
2022/03/14 00:23:28;;;;;;;12.43;4.88;;;5.50;99.90;;;;;;5060212;28;20351;-76
2022/03/14 00:25:54;;;;;;;8.77;4.13;;;5.40;99.90;;;;;;5043816;28;20025;-76
2022/03/14 00:28:20;;;;;;;10.90;4.85;;;5.40;99.90;;;;;;5043574;28;20067;-75
2022/03/14 00:30:46;;;;;;;14.68;5.38;;;5.50;99.90;;;;;;5043183;28;20029;-76
2022/03/14 00:33:12;;;;;;;10.05;4.18;;;5.40;99.90;;;;;;5043100;28;20025;-76
2022/03/14 00:35:38;;;;;;;9.98;4.55;;;5.50;99.90;;;;;;5044603;28;20059;-75
2022/03/14 00:38:04;;;;;;;9.23;4.40;;;5.60;99.90;;;;;;5072982;28;20020;-75
2022/03/14 00:40:29;;;;;;;9.30;3.70;;;5.50;99.90;;;;;;5063583;28;20036;-76
2022/03/14 00:42:55;;;;;;;14.18;4.82;;;5.50;99.90;;;;;;5062876;28;20375;-75
2022/03/14 00:45:23;;;;;;;10.52;4.57;;;5.50;99.90;;;;;;5046823;28;20048;-75
2022/03/14 00:47:49;;;;;;;13.65;4.30;;;5.50;99.90;;;;;;5063156;28;20045;-75
2022/03/14 00:50:15;;;;;;;10.82;4.10;;;5.40;99.90;;;;;;5046859;28;20028;-76
2022/03/14 00:52:41;;;;;;;8.30;3.85;;;5.30;99.90;;;;;;5064471;28;20048;-75
2022/03/14 00:55:07;;;;;;;9.18;3.25;;;5.20;99.90;;;;;;5046399;28;20070;-75
2022/03/14 00:57:32;;;;;;;12.88;3.83;;;5.20;99.90;;;;;;5046721;28;20059;-76
2022/03/14 00:59:58;;;;;;;8.52;3.17;;;5.20;99.90;;;;;;5046661;28;20211;-76
2022/03/14 01:02:24;;;;;;;11.15;3.30;;;5.20;99.90;;;;;;5062563;28;20024;-76
2022/03/14 01:04:50;;;;;;;10.90;3.38;;;5.20;99.90;;;;;;5062710;28;20017;-77
2022/03/14 01:07:16;;;;;;;12.35;3.25;;;5.10;99.90;;;;;;5062125;28;20219;-75
2022/03/14 01:09:41;;;;;;;10.90;3.63;;;5.10;99.90;;;;;;5046447;28;20016;-75
2022/03/14 01:12:08;;;;;;;8.93;3.38;;;5.20;99.90;;;;;;5040973;28;20061;-75
2022/03/14 01:14:34;;;;;;;9.00;2.95;;;5.10;99.90;;;;;;5042788;28;20029;-75
2022/03/14 01:17:00;;;;;;;10.85;3.28;;;5.10;99.90;;;;;;5059678;28;20035;-76
2022/03/14 01:19:26;;;;;;;9.35;2.83;;;5.10;99.90;;;;;;5043046;28;20071;-76
2022/03/14 01:21:51;;;;;;;9.40;3.53;;;5.10;99.90;;;;;;5058205;28;20323;-75
2022/03/14 01:24:18;;;;;;;12.23;3.50;;;5.10;99.90;;;;;;5042553;28;20045;-76
2022/03/14 01:26:45;;;;;;;16.90;3.22;;;5.20;99.90;;;;;;5042684;28;20024;-76
2022/03/14 01:29:11;;;;;;;16.17;2.63;;;5.20;99.90;;;;;;5042907;28;20021;-75
2022/03/14 01:31:38;;;;;;;16.27;3.67;;;5.20;99.90;;;;;;5042211;28;20033;-75
2022/03/14 01:34:04;;;;;;;17.50;3.45;;;5.20;99.90;;;;;;5059184;28;20025;-76
2022/03/14 01:36:30;;;;;;;10.10;2.75;;;5.30;99.90;;;;;;5059293;28;20068;-76
2022/03/14 01:38:56;;;;;;;11.45;2.58;;;5.30;99.90;;;;;;5079198;28;20025;-75
2022/03/14 01:41:22;;;;;;;11.07;3.28;;;5.30;99.90;;;;;;5046020;28;20033;-76
2022/03/14 01:43:49;;;;;;;13.93;3.53;;;5.20;99.90;;;;;;5063294;28;20013;-75
2022/03/14 01:46:16;;;;;;;13.68;3.25;;;5.20;99.90;;;;;;5046129;28;20016;-75
2022/03/14 01:48:44;;;;;;;7.68;2.90;;;5.20;99.90;;;;;;5045717;28;20057;-76
2022/03/14 01:51:10;;;;;;;13.93;2.90;;;5.10;99.90;;;;;;5062249;28;20040;-75
2022/03/14 01:53:37;;;;;;;14.02;2.83;;;5.10;99.90;;;;;;5045667;28;20092;-75
2022/03/14 01:56:04;;;;;;;15.65;2.95;;;5.00;99.90;;;;;;5045867;28;20204;-75
2022/03/14 01:58:31;;;;;;;14.25;2.90;;;5.00;99.90;;;;;;5062039;28;20074;-75
2022/03/14 02:00:57;;;;;;;13.00;2.60;;;5.00;99.90;;;;;;5063173;28;20028;-76
2022/03/14 02:03:22;;;;;;;8.85;2.80;;;5.10;99.90;;;;;;5063287;28;20308;-75
2022/03/14 02:05:48;;;;;;;9.07;2.90;;;5.10;99.90;;;;;;5045529;28;20369;-75
2022/03/14 02:08:15;;;;;;;10.23;3.13;;;4.90;99.90;;;;;;5045905;28;20039;-75
2022/03/14 02:10:41;;;;;;;11.48;3.10;;;4.90;99.90;;;;;;5062272;28;20025;-75
2022/03/14 02:13:08;;;;;;;8.88;2.63;;;4.90;99.90;;;;;;5058447;28;20036;-75
2022/03/14 02:15:34;;;;;;;10.88;3.35;;;4.80;99.90;;;;;;5042377;28;20281;-75
2022/03/14 02:18:01;;;;;;;7.82;3.30;;;4.70;99.90;;;;;;5059545;28;20097;-75
2022/03/14 02:20:27;;;;;;;9.80;2.83;;;4.70;99.90;;;;;;5047602;28;20025;-75
2022/03/14 02:22:52;;;;;;;9.30;3.22;;;4.60;99.90;;;;;;5045190;28;20088;-75
2022/03/14 02:25:18;;;;;;;10.80;3.47;;;4.50;99.90;;;;;;5046258;28;20025;-76
2022/03/14 02:27:44;;;;;;;15.60;3.80;;;4.40;99.90;;;;;;5046312;28;20087;-75
2022/03/14 02:30:10;;;;;;;10.98;2.90;;;4.40;99.90;;;;;;5062415;28;20021;-75
2022/03/14 02:32:41;;;;;;;11.32;3.85;;;4.40;99.90;;;;;;5062481;28;20052;-75
2022/03/14 02:35:08;;;;;;;10.73;3.67;;;4.40;99.90;;;;;;5046730;28;20368;-75
2022/03/14 02:37:33;;;;;;;10.98;3.17;;;4.40;99.90;;;;;;5054857;28;20044;-75
2022/03/14 02:39:59;;;;;;;9.82;4.05;;;4.40;99.90;;;;;;5049344;28;20078;-75
2022/03/14 02:42:25;;;;;;;11.13;3.83;;;4.40;99.90;;;;;;5066975;28;20324;-76
2022/03/14 02:44:51;;;;;;;13.88;3.88;;;4.40;99.90;;;;;;5065642;28;20032;-75
2022/03/14 02:47:17;;;;;;;10.23;2.80;;;4.40;99.90;;;;;;5049223;28;20059;-75
2022/03/14 02:49:42;;;;;;;9.35;3.20;;;4.40;99.90;;;;;;5049211;28;20020;-76
2022/03/14 02:52:08;;;;;;;8.25;3.40;;;4.40;99.90;;;;;;5065527;28;20043;-75
2022/03/14 02:54:34;;;;;;;9.05;3.38;;;4.30;99.90;;;;;;5049393;28;20025;-76
2022/03/14 02:57:00;;;;;;;14.00;3.90;;;4.30;99.90;;;;;;5048621;28;20040;-75
2022/03/14 02:59:26;;;;;;;13.68;4.38;;;4.30;99.90;;;;;;5048739;28;20017;-75
2022/03/14 03:01:52;;;;;;;20.33;4.63;;;4.30;99.90;;;;;;5065086;28;20216;-75
2022/03/14 03:04:18;;;;;;;11.60;3.28;;;4.30;99.90;;;;;;5048888;28;20020;-75
2022/03/14 03:06:45;;;;;;;14.65;3.90;;;4.20;99.90;;;;;;5048263;28;20052;-75
2022/03/14 03:09:11;;;;;;;14.05;3.53;;;4.20;99.90;;;;;;5049146;28;20300;-75
2022/03/14 03:11:37;;;;;;;10.70;3.20;;;4.10;99.90;;;;;;5066196;28;20070;-75
2022/03/14 03:14:04;;;;;;;10.50;3.70;;;4.00;99.90;;;;;;5082146;28;20044;-75
2022/03/14 03:16:30;;;;;;;13.60;3.40;;;4.00;99.90;;;;;;5065112;28;20051;-76
2022/03/14 03:18:56;;;;;;;10.57;3.47;;;4.00;99.90;;;;;;5064921;28;20208;-75
2022/03/14 03:21:22;;;;;;;8.45;3.67;;;4.00;99.90;;;;;;5065210;28;20158;-75
2022/03/14 03:23:48;;;;;;;14.40;3.53;;;4.00;99.90;;;;;;5080217;28;20021;-75
2022/03/14 03:26:14;;;;;;;9.82;3.75;;;3.90;99.90;;;;;;5064495;28;20044;-75
2022/03/14 03:28:40;;;;;;;11.55;3.15;;;4.00;99.90;;;;;;5064787;28;20017;-75
2022/03/14 03:31:07;;;;;;;7.57;3.10;;;4.00;99.90;;;;;;5065093;28;20043;-75
2022/03/14 03:33:34;;;;;;;12.15;3.97;;;3.90;99.90;;;;;;5064532;28;20024;-74
2022/03/14 03:36:00;;;;;;;10.18;3.53;;;3.90;99.90;;;;;;5064770;28;20243;-74
2022/03/14 03:38:27;;;;;;;9.38;3.35;;;4.00;99.90;;;;;;5064924;28;20086;-75
2022/03/14 03:40:53;;;;;;;10.98;3.25;;;4.00;99.90;;;;;;5064575;28;20036;-75
2022/03/14 03:43:18;;;;;;;11.02;3.10;;;4.00;99.90;;;;;;5066034;28;20060;-75
2022/03/14 03:45:44;;;;;;;13.40;3.50;;;4.00;99.90;;;;;;5065731;28;20028;-74
2022/03/14 03:48:10;;;;;;;11.52;2.88;;;4.00;99.90;;;;;;5064396;28;20063;-74
2022/03/14 03:50:35;;;;;;;12.60;3.38;;;4.00;99.90;;;;;;5047942;28;20028;-74
2022/03/14 03:53:01;;;;;;;12.70;3.13;;;3.90;99.90;;;;;;5065756;28;20048;-75
2022/03/14 03:55:27;;;;;;;8.13;2.65;;;3.90;99.90;;;;;;5031553;28;20037;-74
2022/03/14 03:57:53;;;;;;;8.30;3.05;;;3.80;99.90;;;;;;5047791;28;20091;-74
2022/03/14 04:00:19;;;;;;;11.27;2.80;;;3.80;99.90;;;;;;5047743;28;20021;-75
2022/03/14 04:02:46;;;;;;;18.60;4.20;;;3.80;99.90;;;;;;5065082;28;20039;-75
2022/03/14 04:05:16;;;;;;;11.00;2.78;;;3.80;99.90;;;;;;5047761;28;20020;-74
2022/03/14 04:07:43;;;;;;;12.90;3.13;;;3.80;99.90;;;;;;5047883;28;20021;-75
2022/03/14 04:10:09;;;;;;;11.05;3.03;;;3.80;99.90;;;;;;5047439;28;20088;-75
2022/03/14 04:12:37;;;;;;;13.32;3.65;;;3.90;99.90;;;;;;5043715;28;20032;-74
2022/03/14 04:15:04;;;;;;;11.68;3.28;;;3.90;99.90;;;;;;5027785;28;20021;-75
2022/03/14 04:17:31;;;;;;;7.07;3.40;;;3.80;99.90;;;;;;5027650;28;20251;-74
2022/03/14 04:19:59;;;;;;;11.55;3.97;;;3.80;99.90;;;;;;5045030;28;20022;-75
2022/03/14 04:22:27;;;;;;;13.27;3.67;;;3.80;99.90;;;;;;5027688;28;20228;-75
2022/03/14 04:24:52;;;;;;;16.70;3.65;;;3.70;99.90;;;;;;5026013;28;20320;-75
2022/03/14 04:27:18;;;;;;;4.80;2.95;;;3.70;99.90;;;;;;5026891;28;20029;-75
2022/03/14 04:29:44;;;;;;;5.93;2.95;;;3.70;99.90;;;;;;5027016;28;20067;-75
2022/03/14 04:32:10;;;;;;;7.10;3.20;;;3.70;99.90;;;;;;5042637;28;20053;-75
2022/03/14 04:34:35;;;;;;;9.90;3.25;;;3.70;99.90;;;;;;5043348;28;20028;-74
2022/03/14 04:37:01;;;;;;;17.40;3.55;;;3.60;99.90;;;;;;5047338;28;20070;-74
2022/03/14 04:39:27;;;;;;;10.35;3.10;;;3.60;99.90;;;;;;5047012;28;20017;-74
2022/03/14 04:41:54;;;;;;;16.33;3.58;;;3.60;99.90;;;;;;5046805;28;20027;-74
2022/03/14 04:44:21;;;;;;;11.48;3.60;;;3.60;99.90;;;;;;5079843;28;20029;-75
2022/03/14 04:46:48;;;;;;;16.95;4.10;;;3.50;99.90;;;;;;5064053;28;20239;-74
2022/03/14 04:49:14;;;;;;;7.60;3.17;;;3.60;99.90;;;;;;5063462;28;20083;-75
2022/03/14 04:51:40;;;;;;;10.60;3.47;;;3.60;99.90;;;;;;5046210;28;20033;-74
2022/03/14 04:54:06;;;;;;;8.65;3.70;;;3.60;99.90;;;;;;5063627;28;20251;-75
2022/03/14 04:56:32;;;;;;;8.45;3.53;;;3.60;99.90;;;;;;5063282;28;20021;-75
2022/03/14 04:58:58;;;;;;;11.45;3.10;;;3.50;99.90;;;;;;5046031;28;20103;-75
2022/03/14 05:01:24;;;;;;;7.97;2.90;;;3.60;99.90;;;;;;5045852;28;20079;-74
2022/03/14 05:03:52;;;;;;;7.95;3.30;;;3.50;99.90;;;;;;5064163;28;20316;-75
2022/03/14 05:06:18;;;;;;;11.63;3.00;;;3.50;99.90;;;;;;5079923;28;20025;-75
2022/03/14 05:08:45;;;;;;;11.50;3.47;;;3.60;99.90;;;;;;5062800;28;20052;-75
2022/03/14 05:11:11;;;;;;;14.95;4.18;;;3.60;99.90;;;;;;5062784;28;20041;-75
2022/03/14 05:13:38;;;;;;;10.32;3.88;;;3.60;99.90;;;;;;5063080;28;20017;-76
2022/03/14 05:16:04;;;;;;;8.35;2.80;;;3.60;99.90;;;;;;5062651;28;20044;-76
2022/03/14 05:18:29;;;;;;;17.10;3.60;;;3.70;99.90;;;;;;5079587;28;20040;-75
2022/03/14 05:20:56;;;;;;;12.65;4.85;;;3.60;99.90;;;;;;5064001;28;20070;-75
2022/03/14 05:23:22;;;;;;;15.63;3.88;;;3.60;99.90;;;;;;5064067;28;20123;-75
2022/03/14 05:25:48;;;;;;;11.10;3.42;;;3.50;99.90;;;;;;5061626;28;20025;-75
2022/03/14 05:28:14;;;;;;;17.15;3.88;;;3.50;99.90;;;;;;5063690;28;20024;-76
2022/03/14 05:30:39;;;;;;;11.07;3.50;;;3.60;99.90;;;;;;5062589;28;20024;-75
2022/03/14 05:33:06;;;;;;;10.52;3.67;;;3.60;99.90;;;;;;5063676;28;20056;-75
2022/03/14 05:35:31;;;;;;;7.45;3.95;;;3.60;99.90;;;;;;5063837;28;20017;-75
2022/03/14 05:37:57;;;;;;;9.40;3.45;;;3.70;99.90;;;;;;5062762;28;20181;-76
2022/03/14 05:40:23;;;;;;;12.07;3.47;;;3.60;99.90;;;;;;5063866;28;20111;-75
2022/03/14 05:42:50;;;;;;;13.45;3.92;;;3.60;99.90;;;;;;5062485;28;20041;-75
2022/03/14 05:45:18;;;;;;;16.15;6.78;;;3.60;99.90;;;;;;5046051;28;20032;-75
2022/03/14 05:47:46;;;;;;;15.20;5.82;;;3.60;99.90;;;;;;5062198;28;20132;-76
2022/03/14 05:50:12;;;;;;;14.68;5.07;;;3.50;99.90;;;;;;5062615;28;20320;-76
2022/03/14 05:52:39;;;;;;;19.98;4.68;;;3.50;99.90;;;;;;5044665;28;20090;-75
2022/03/14 05:55:05;;;;;;;17.50;5.10;;;3.60;99.90;;;;;;5062374;28;20025;-76
2022/03/14 05:57:33;;;;;;;6.35;3.72;;;3.60;99.90;;;;;;5062515;28;20219;-76
2022/03/14 05:59:59;;;;;;;12.32;3.75;;;3.60;99.90;;;;;;5062300;28;20021;-75
2022/03/14 06:02:25;;;;;;;16.05;4.80;;;3.60;99.90;;;;;;5078924;28;20308;-76
2022/03/14 06:04:52;;;;;;;14.30;6.07;;;3.50;99.90;;;;;;5062443;28;20067;-76
2022/03/14 06:07:21;;;;;;;8.88;4.43;;;3.50;99.90;;;;;;5063519;28;20051;-76
2022/03/14 06:09:48;;;;;;;14.80;4.30;;;3.50;99.90;;;;;;5062111;28;20396;-75
2022/03/14 06:12:30;;;;;;;18.17;4.85;;;3.50;99.90;;;;;;5031948;28;20107;-77
2022/03/14 06:14:58;;;;;;;14.20;3.75;;;3.50;99.90;;;;;;5063417;28;20055;-76
2022/03/14 06:17:25;;;;;;;10.32;3.78;;;3.50;99.90;;;;;;5045556;28;20025;-77
2022/03/14 06:19:51;;;;;;;13.40;3.92;;;3.50;99.90;;;;;;5045826;28;20025;-76
2022/03/14 06:22:18;;;;;;;10.93;3.35;;;3.50;99.90;;;;;;5045037;28;20021;-77
2022/03/14 06:24:46;;;;;;;12.93;3.47;;;3.50;99.90;;;;;;5044304;28;20045;-77
2022/03/14 06:27:13;;;;;;;11.20;4.53;;;3.50;99.90;;;;;;5078156;28;20096;-77
2022/03/14 06:29:38;;;;;;;12.65;4.93;;;3.40;99.90;;;;;;5061889;28;20020;-77
2022/03/14 06:32:05;;;;;;;10.95;4.53;;;3.40;99.90;;;;;;5027470;28;20074;-77
2022/03/14 06:34:30;;;;;;;11.10;5.03;;;3.40;99.90;;;;;;5062469;28;20035;-77
2022/03/14 06:36:56;;;;;;;14.48;4.43;;;3.30;99.90;;;;;;5045401;28;20044;-78
2022/03/14 06:39:22;;;;;;;15.15;5.05;;;3.40;99.90;;;;;;5061732;28;20028;-77
2022/03/14 06:41:48;;;;;;;14.68;3.80;;;3.40;99.90;;;;;;5044605;28;20096;-77
2022/03/14 06:44:14;;;;;;;13.55;4.03;;;3.40;99.90;;;;;;5061943;28;20023;-75
2022/03/14 06:46:40;;;;;;;12.07;4.05;;;3.40;99.90;;;;;;5061509;28;20028;-76
2022/03/14 06:49:06;;;;;;;11.40;4.10;;;3.40;99.90;;;;;;5062280;28;20130;-76
2022/03/14 06:51:33;;;;;;;14.73;4.78;;;3.40;99.90;;;;;;5045153;28;20328;-76
2022/03/14 06:53:59;;;;;;;15.30;5.18;;;3.40;99.90;;;;;;5045516;28;20071;-77
2022/03/14 06:56:25;;;;;;;20.05;4.57;;;3.40;99.90;;;;;;5062550;28;20234;-76
2022/03/14 06:58:51;;;;;;;12.88;4.90;;;3.40;99.90;;;;;;5061787;28;20019;-78
2022/03/14 07:01:18;;;;;;;12.00;4.00;;;3.40;99.90;;;;;;5044560;28;20040;-78
2022/03/14 07:03:45;;;;;;;13.23;4.93;;;3.40;99.90;;;;;;5061478;28;20081;-77
2022/03/14 07:06:11;;;;;;;15.27;5.55;;;3.50;99.90;;;;;;5063233;28;20299;-77
2022/03/14 07:08:36;;;;;;;12.23;5.22;;;3.50;99.90;;;;;;5065264;28;20024;-76
2022/03/14 07:11:02;;;;;;;16.33;5.03;;;3.60;99.90;;;;;;5064603;28;20259;-78
2022/03/14 07:13:28;;;;;;;7.65;4.05;;;3.60;99.90;;;;;;5048800;28;20243;-78
2022/03/14 07:15:54;;;;;;;11.38;4.40;;;3.70;99.90;;;;;;5065030;28;20017;-77
2022/03/14 07:18:20;;;;;;;15.25;4.30;;;3.80;99.90;;;;;;5048494;28;20024;-76
2022/03/14 07:20:45;;;;;;;13.38;4.47;;;3.80;99.90;;;;;;5031746;28;20032;-77
2022/03/14 07:23:11;;;;;;;13.00;4.25;;;3.90;99.90;;;;;;5048172;28;20021;-77
2022/03/14 07:25:38;;;;;;;15.13;4.13;;;4.00;99.90;;;;;;5047102;28;20025;-77
2022/03/14 07:28:06;;;;;;;17.42;4.65;;;4.00;99.90;;;;;;5064335;28;20311;-77
2022/03/14 07:30:32;;;;;;;12.80;4.35;;;4.20;99.90;;;;;;5048040;28;20025;-75
2022/03/14 07:32:57;;;;;;;11.07;4.18;;;4.30;99.90;;;;;;5064433;28;20370;-76
2022/03/14 07:35:24;;;;;;;13.70;4.93;;;4.30;99.90;;;;;;5047989;28;20021;-77
2022/03/14 07:37:50;;;;;;;12.43;5.00;;;4.40;99.90;;;;;;5047933;28;20373;-76
2022/03/14 07:40:16;;;;;;;18.70;6.07;;;4.50;99.90;;;;;;5065708;28;20021;-76
2022/03/14 07:42:44;;;;;;;26.63;6.70;;;4.60;99.90;;;;;;5031374;28;20017;-78
2022/03/14 07:45:12;;;;;;;34.20;6.13;;;4.70;99.90;;;;;;5031947;28;20025;-78
2022/03/14 07:47:39;;;;;;;19.00;6.13;;;4.70;99.90;;;;;;5080871;28;20024;-77
2022/03/14 07:50:07;;;;;;;19.42;6.00;;;4.80;99.90;;;;;;5047638;28;20028;-76
2022/03/14 07:52:34;;;;;;;14.30;5.85;;;4.80;99.90;;;;;;5047911;28;20096;-75
2022/03/14 07:55:00;;;;;;;17.67;5.85;;;4.90;99.90;;;;;;5064601;28;20028;-77
2022/03/14 07:57:26;;;;;;;15.50;5.70;;;4.90;99.90;;;;;;5047400;28;20258;-77
2022/03/14 07:59:52;;;;;;;17.27;6.68;;;5.00;99.90;;;;;;5047609;28;20024;-76
2022/03/14 08:02:18;;;;;;;16.80;6.32;;;5.00;99.90;;;;;;5063905;28;20021;-75
2022/03/14 08:04:43;;;;;;;19.02;5.93;;;5.00;99.90;;;;;;5047283;28;20020;-77
2022/03/14 08:07:09;;;;;;;21.10;8.18;;;5.10;99.90;;;;;;5042751;28;20028;-75
2022/03/14 08:09:37;;;;;;;14.07;5.90;;;5.30;99.90;;;;;;5043886;28;20088;-75
2022/03/14 08:12:04;;;;;;;16.08;6.57;;;5.50;99.90;;;;;;5033095;28;20208;-76
2022/03/14 08:14:31;;;;;;;19.02;7.40;;;5.60;99.90;;;;;;5058774;28;20024;-74
2022/03/14 08:16:57;;;;;;;20.40;7.25;;;5.70;99.90;;;;;;5062246;28;20374;-77
2022/03/14 08:19:23;;;;;;;14.52;5.78;;;5.70;99.90;;;;;;5063207;28;20044;-76
2022/03/14 08:21:51;;;;;;;24.38;7.18;;;5.70;99.90;;;;;;5063083;28;20209;-75
2022/03/14 08:24:17;;;;;;;16.20;6.07;;;5.80;99.90;;;;;;5064846;28;20021;-74
2022/03/14 08:26:44;;;;;;;18.23;5.85;;;5.80;99.90;;;;;;5041047;28;20033;-75
2022/03/14 08:29:10;;;;;;;18.77;6.55;;;5.90;99.90;;;;;;5060436;28;20368;-75
2022/03/14 08:31:36;;;;;;;12.40;5.53;;;6.00;99.90;;;;;;5026332;28;20060;-79
2022/03/14 08:34:02;;;;;;;19.85;6.72;;;6.10;99.90;;;;;;5063323;28;20229;-77
2022/03/14 08:36:28;;;;;;;18.08;6.25;;;6.20;99.90;;;;;;5045472;28;20048;-76
2022/03/14 08:38:56;;;;;;;23.13;6.20;;;6.20;99.90;;;;;;5043038;28;20025;-78
2022/03/14 08:41:22;;;;;;;14.95;5.80;;;6.40;99.90;;;;;;5046199;28;20024;-75
2022/03/14 08:43:48;;;;;;;18.55;5.57;;;6.50;99.90;;;;;;5063874;28;20009;-77
2022/03/14 08:46:15;;;;;;;20.88;5.22;;;6.60;99.90;;;;;;5055941;28;20017;-78
2022/03/14 08:48:41;;;;;;;15.82;5.03;;;6.70;99.90;;;;;;5028836;28;20049;-82
2022/03/14 08:51:07;;;;;;;15.43;4.75;;;6.70;99.90;;;;;;5046489;28;20078;-80
2022/03/14 08:53:33;;;;;;;15.57;4.57;;;6.80;99.90;;;;;;5046576;28;20033;-82
2022/03/14 08:56:01;;;;;;;9.73;4.22;;;6.90;99.90;;;;;;5061571;28;20017;-84
2022/03/14 08:58:29;;;;;;;16.42;4.43;;;7.00;99.90;;;;;;5062360;28;20027;-78
2022/03/14 09:00:58;;;;;;;12.73;4.20;;;7.10;99.90;;;;;;5060346;28;20289;-80
2022/03/14 09:03:26;;;;;;;14.40;4.60;;;7.20;99.90;;;;;;5059306;28;20029;-83
2022/03/14 09:05:56;;;;;;;12.35;4.10;;;7.20;99.90;;;;;;5053265;28;20064;-75
2022/03/14 09:08:23;;;;;;;18.00;3.80;;;7.40;99.90;;;;;;5040577;28;20025;-79
2022/03/14 09:10:49;;;;;;;19.52;4.93;;;7.50;99.90;;;;;;5056871;28;20324;-77
2022/03/14 09:13:15;;;;;;;17.05;4.60;;;7.60;99.90;;;;;;5028332;28;20029;-80
2022/03/14 09:15:41;;;;;;;17.75;4.97;;;7.80;99.90;;;;;;5041577;28;20049;-80
2022/03/14 09:18:07;;;;;;;18.00;4.88;;;7.90;99.90;;;;;;5054154;28;20024;-80
2022/03/14 09:20:34;;;;;;;16.08;4.40;;;8.00;99.90;;;;;;5039920;28;20049;-78
2022/03/14 09:23:00;;;;;;;17.23;4.10;;;8.20;99.90;;;;;;5041459;28;20021;-79
2022/03/14 09:25:26;;;;;;;18.55;4.38;;;8.40;99.90;;;;;;5043025;28;20055;-78
2022/03/14 09:27:53;;;;;;;22.92;4.25;;;8.60;99.90;;;;;;5024879;28;20053;-81
2022/03/14 09:30:20;;;;;;;16.67;3.45;;;8.80;99.90;;;;;;5058166;28;20056;-78
2022/03/14 09:32:46;;;;;;;17.42;3.85;;;9.10;99.90;;;;;;5042401;28;20055;-77
2022/03/14 09:35:14;;;;;;;20.48;3.38;;;9.20;99.90;;;;;;5041837;28;20037;-78
2022/03/14 09:37:40;;;;;;;23.95;4.70;;;9.40;99.90;;;;;;5041156;28;20088;-79
2022/03/14 09:40:10;;;;;;;25.88;3.78;;;9.40;99.90;;;;;;5058978;28;20033;-80
2022/03/14 09:42:38;;;;;;;18.90;3.53;;;9.60;99.90;;;;;;5045554;28;20029;-79
2022/03/14 09:45:06;;;;;;;24.80;3.50;;;9.70;99.90;;;;;;5045170;28;20028;-80
2022/03/14 09:47:37;;;;;;;22.52;2.80;;;9.90;99.90;;;;;;5045722;28;20306;-78
2022/03/14 09:50:08;;;;;;;14.52;2.20;;;9.90;99.90;;;;;;5045121;28;20049;-77
2022/03/14 09:52:37;;;;;;;22.05;2.83;;;10.00;99.90;;;;;;5061443;28;20337;-77
2022/03/14 09:55:07;;;;;;;15.63;2.60;;;10.00;99.90;;;;;;5063292;28;20194;-77
2022/03/14 09:57:35;;;;;;;21.75;2.40;;;10.10;99.90;;;;;;5062022;28;20029;-85
2022/03/14 10:00:00;;;;;;;19.85;2.35;;;10.10;99.90;;;;;;5051433;28;20303;-81
2022/03/14 10:02:29;;;;;;;13.65;2.22;;;10.20;99.90;;;;;;5040966;28;20025;-78
2022/03/14 10:04:55;;;;;;;24.50;3.00;;;10.30;99.90;;;;;;5024931;28;20032;-76
2022/03/14 10:07:21;;;;;;;15.85;1.80;;;10.30;99.90;;;;;;5041240;28;20025;-80
2022/03/14 10:09:47;;;;;;;16.00;2.03;;;10.40;99.90;;;;;;5024590;28;20023;-81
2022/03/14 10:12:15;;;;;;;16.95;2.10;;;10.40;99.90;;;;;;5041525;28;20041;-81
2022/03/14 10:14:41;;;;;;;14.27;2.17;;;10.40;99.90;;;;;;5043211;28;20359;-83
2022/03/14 10:17:08;;;;;;;22.98;2.60;;;10.40;99.90;;;;;;5041852;28;20055;-81
2022/03/14 10:19:34;;;;;;;23.67;3.55;;;10.40;99.90;;;;;;5047482;28;20047;-79
2022/03/14 10:22:18;;;;;;;18.35;2.47;;;10.40;99.90;;;;;;5048868;28;20351;-78
2022/03/14 10:24:44;;;;;;;19.83;2.05;;;10.40;99.90;;;;;;5025126;28;20071;-76
2022/03/14 10:27:12;;;;;;;19.73;2.88;;;10.50;99.90;;;;;;5041140;28;20032;-78
2022/03/14 10:29:38;;;;;;;24.75;1.95;;;10.50;99.90;;;;;;5040649;28;20034;-80
2022/03/14 10:35:03;;;;;;;20.10;2.22;;;10.70;99.90;;;;;;5041260;28;20034;-79
2022/03/14 10:37:29;;;;;;;24.43;2.63;;;10.80;99.90;;;;;;5048902;28;20028;-78
2022/03/14 10:39:58;;;;;;;21.67;2.65;;;10.90;99.90;;;;;;5042132;28;20092;-78
2022/03/14 10:42:24;;;;;;;16.70;2.40;;;10.90;99.90;;;;;;5027661;28;20212;-77
2022/03/14 10:44:50;;;;;;;16.13;2.20;;;11.00;99.90;;;;;;5044515;28;20045;-77
2022/03/14 10:47:19;;;;;;;22.02;2.28;;;11.00;99.90;;;;;;5046595;28;20302;-78
2022/03/14 10:49:46;;;;;;;16.88;2.60;;;11.00;99.90;;;;;;5052989;28;20024;-76
2022/03/14 10:52:18;;;;;;;21.77;2.17;;;11.00;99.90;;;;;;5081539;28;20041;-79
2022/03/14 10:54:44;;;;;;;23.27;2.20;;;11.00;99.90;;;;;;5048504;28;20067;-79
2022/03/14 10:57:16;;;;;;;32.72;3.33;;;11.20;99.90;;;;;;5057527;28;20096;-78
2022/03/14 10:59:47;;;;;;;15.82;1.98;;;11.40;99.90;;;;;;5065225;28;20017;-75
2022/03/14 11:02:19;;;;;;;18.02;2.13;;;11.60;99.90;;;;;;5065589;28;20025;-77
2022/03/14 11:04:57;;;;;;;22.10;2.20;;;11.70;99.90;;;;;;5065796;28;20021;-77
2022/03/14 11:07:26;;;;;;;12.35;1.75;;;11.80;99.90;;;;;;5063319;28;20016;-77
2022/03/14 11:09:57;;;;;;;15.43;1.75;;;11.90;99.90;;;;;;5064793;28;20114;-77
2022/03/14 11:12:25;;;;;;;16.85;2.05;;;11.90;99.90;;;;;;5043827;28;20083;-74
2022/03/14 11:15:08;;;;;;;18.23;2.10;;;12.00;99.80;;;;;;5052727;28;20081;-75
2022/03/14 11:17:36;;;;;;;17.60;2.28;;;12.10;99.10;;;;;;5044675;28;20037;-78
2022/03/14 11:20:02;;;;;;;14.07;2.05;;;12.10;98.70;;;;;;5062456;28;20021;-80
2022/03/14 11:22:29;;;;;;;12.88;1.75;;;12.20;98.90;;;;;;5064311;28;20032;-76
2022/03/14 11:24:57;;;;;;;18.13;2.10;;;12.30;98.70;;;;;;5063800;28;20045;-77
2022/03/14 11:27:27;;;;;;;16.90;2.42;;;12.30;97.80;;;;;;5063587;28;20025;-77
2022/03/14 11:29:58;;;;;;;8.55;1.58;;;12.20;97.70;;;;;;5059243;28;20328;-77
2022/03/14 11:32:24;;;;;;;13.88;2.10;;;12.10;97.10;;;;;;5050227;28;20033;-76
2022/03/14 11:34:50;;;;;;;18.48;2.53;;;12.10;97.60;;;;;;5063460;28;20308;-77
2022/03/14 11:37:17;;;;;;;21.65;2.72;;;12.20;97.50;;;;;;5057874;28;20033;-79
2022/03/14 11:39:44;;;;;;;15.20;1.70;;;12.30;97.20;;;;;;5027681;28;20059;-79
2022/03/14 11:42:12;;;;;;;23.38;2.13;;;12.30;96.90;;;;;;5043650;28;20084;-79
2022/03/14 11:44:39;;;;;;;12.25;1.80;;;12.40;96.70;;;;;;5027843;28;20052;-78
2022/03/14 11:47:10;;;;;;;19.27;2.10;;;12.40;95.70;;;;;;5043863;28;20021;-76
2022/03/14 11:49:36;;;;;;;20.70;1.98;;;12.50;96.30;;;;;;5044625;28;20240;-80
2022/03/14 11:52:18;;;;;;;12.85;1.50;;;12.50;95.90;;;;;;5043191;28;20041;-79
2022/03/14 11:54:57;;;;;;;9.32;1.75;;;12.60;95.00;;;;;;5027552;28;20053;-78
2022/03/14 11:57:41;;;;;;;8.02;1.10;;;12.60;94.30;;;;;;5027694;28;20064;-79
2022/03/14 12:00:35;;;;;;;14.07;1.75;;;12.70;93.80;;;;;;5031478;28;20017;-75
2022/03/14 12:03:06;;;;;;;20.15;2.15;;;12.60;92.80;;;;;;5055547;28;20014;-76
2022/03/14 12:05:47;;;;;;;11.73;1.38;;;12.70;93.40;;;;;;5060482;28;20043;-76
2022/03/14 12:08:53;;;;;;;13.98;1.52;;;12.80;92.90;;;;;;5060136;28;20033;-78
2022/03/14 12:11:40;;;;;;;13.13;1.40;;;12.80;92.80;;;;;;5057635;28;20025;-77
2022/03/14 12:14:09;;;;;;;36.47;4.80;;;12.80;92.60;;;;;;5043538;28;20021;-76
2022/03/14 12:16:43;;;;;;;19.23;1.83;;;12.90;92.40;;;;;;5045298;28;20017;-77
2022/03/14 12:19:30;;;;;;;12.18;1.63;;;13.10;92.90;;;;;;5044561;28;20076;-76
2022/03/14 12:21:57;;;;;;;13.00;1.77;;;13.10;93.40;;;;;;5043117;28;20014;-77
2022/03/14 12:24:43;;;;;;;12.43;1.38;;;13.30;92.40;;;;;;5048701;28;20049;-78
2022/03/14 12:27:30;;;;;;;8.43;1.50;;;13.40;91.70;;;;;;5064330;28;20029;-74
2022/03/14 12:29:57;;;;;;;11.13;1.60;;;13.50;91.90;;;;;;5045399;28;20311;-79
2022/03/14 12:32:42;;;;;;;12.60;1.60;;;13.50;92.20;;;;;;5046295;28;20033;-78
2022/03/14 12:35:14;;;;;;;13.60;1.73;;;13.40;91.80;;;;;;5079454;28;20035;-76
2022/03/14 12:37:42;;;;;;;14.75;1.77;;;13.40;92.50;;;;;;5053906;28;20036;-75
2022/03/14 12:40:42;;;;;;;17.42;2.08;;;13.50;92.40;;;;;;5043350;28;20059;-78
2022/03/14 12:43:12;;;;;;;8.25;1.45;;;13.50;91.70;;;;;;5031267;28;20017;-81
2022/03/14 12:45:40;;;;;;;6.28;1.70;;;13.60;91.10;;;;;;5054940;28;20021;-76
2022/03/14 12:48:24;;;;;;;6.47;1.25;;;13.40;91.20;;;;;;5064075;28;20100;-79
2022/03/14 12:50:56;;;;;;;8.02;1.30;;;13.10;91.50;;;;;;5046159;28;20294;-78